sensor_id;sensor_type;location;lat;lon;timestamp;P1;durP1;ratioP1;P2;durP2;ratioP2
49824;SDS011;35714;55.708;37.478;2023-05-19T00:02:15;2.90;;;1.83;;
49824;SDS011;35714;55.708;37.478;2023-05-19T00:04:43;2.75;;;1.48;;
49824;SDS011;35714;55.708;37.478;2023-05-19T00:07:09;3.28;;;1.50;;
49824;SDS011;35714;55.708;37.478;2023-05-19T00:09:36;2.65;;;1.35;;
49824;SDS011;35714;55.708;37.478;2023-05-19T00:12:03;3.20;;;1.50;;
49824;SDS011;35714;55.708;37.478;2023-05-19T00:14:29;3.35;;;1.83;;
49824;SDS011;35714;55.708;37.478;2023-05-19T00:16:55;2.67;;;1.35;;
49824;SDS011;35714;55.708;37.478;2023-05-19T00:19:23;2.80;;;1.40;;
49824;SDS011;35714;55.708;37.478;2023-05-19T00:21:50;3.38;;;1.35;;
49824;SDS011;35714;55.708;37.478;2023-05-19T00:24:15;3.63;;;2.22;;
49824;SDS011;35714;55.708;37.478;2023-05-19T00:26:41;3.28;;;1.60;;
49824;SDS011;35714;55.708;37.478;2023-05-19T00:29:07;2.72;;;1.50;;
49824;SDS011;35714;55.708;37.478;2023-05-19T00:31:32;3.38;;;1.50;;
49824;SDS011;35714;55.708;37.478;2023-05-19T00:34:00;2.90;;;1.30;;
49824;SDS011;35714;55.708;37.478;2023-05-19T00:36:26;3.05;;;1.40;;
49824;SDS011;35714;55.708;37.478;2023-05-19T00:38:52;2.33;;;0.90;;
49824;SDS011;35714;55.708;37.478;2023-05-19T00:41:17;2.70;;;1.00;;
49824;SDS011;35714;55.708;37.478;2023-05-19T00:43:43;3.13;;;1.33;;
49824;SDS011;35714;55.708;37.478;2023-05-19T00:46:09;2.95;;;1.02;;
49824;SDS011;35714;55.708;37.478;2023-05-19T00:48:35;6.43;;;1.20;;
49824;SDS011;35714;55.708;37.478;2023-05-19T00:51:01;1.98;;;0.90;;
49824;SDS011;35714;55.708;37.478;2023-05-19T00:53:31;2.63;;;1.00;;
49824;SDS011;35714;55.708;37.478;2023-05-19T00:55:59;2.17;;;0.80;;
49824;SDS011;35714;55.708;37.478;2023-05-19T00:58:25;3.50;;;1.17;;
49824;SDS011;35714;55.708;37.478;2023-05-19T01:00:59;2.20;;;0.80;;
49824;SDS011;35714;55.708;37.478;2023-05-19T01:03:31;2.47;;;0.90;;
49824;SDS011;35714;55.708;37.478;2023-05-19T01:05:59;4.15;;;0.80;;
49824;SDS011;35714;55.708;37.478;2023-05-19T01:08:33;2.10;;;0.80;;
49824;SDS011;35714;55.708;37.478;2023-05-19T01:11:01;1.38;;;0.50;;
49824;SDS011;35714;55.708;37.478;2023-05-19T01:13:27;2.55;;;0.80;;
49824;SDS011;35714;55.708;37.478;2023-05-19T01:18:38;3.88;;;0.93;;
49824;SDS011;35714;55.708;37.478;2023-05-19T01:32:56;1.88;;;0.80;;
49824;SDS011;35714;55.708;37.478;2023-05-19T01:35:24;1.38;;;0.55;;
49824;SDS011;35714;55.708;37.478;2023-05-19T01:37:51;1.83;;;0.60;;
49824;SDS011;35714;55.708;37.478;2023-05-19T01:40:25;0.98;;;0.43;;
49824;SDS011;35714;55.708;37.478;2023-05-19T01:42:53;1.55;;;0.47;;
49824;SDS011;35714;55.708;37.478;2023-05-19T01:45:21;1.27;;;0.60;;
49824;SDS011;35714;55.708;37.478;2023-05-19T01:47:49;1.25;;;0.45;;
49824;SDS011;35714;55.708;37.478;2023-05-19T01:50:17;0.95;;;0.50;;
49824;SDS011;35714;55.708;37.478;2023-05-19T01:52:43;1.08;;;0.50;;
49824;SDS011;35714;55.708;37.478;2023-05-19T01:55:09;1.35;;;0.38;;
49824;SDS011;35714;55.708;37.478;2023-05-19T02:00:14;1.10;;;0.60;;
49824;SDS011;35714;55.708;37.478;2023-05-19T02:08:13;2.85;;;1.10;;
49824;SDS011;35714;55.708;37.478;2023-05-19T02:10:49;4.75;;;1.67;;
49824;SDS011;35714;55.708;37.478;2023-05-19T02:13:19;4.32;;;1.40;;
49824;SDS011;35714;55.708;37.478;2023-05-19T02:15:53;3.58;;;1.60;;
49824;SDS011;35714;55.708;37.478;2023-05-19T02:18:23;3.53;;;1.50;;
49824;SDS011;35714;55.708;37.478;2023-05-19T02:20:49;5.03;;;1.80;;
49824;SDS011;35714;55.708;37.478;2023-05-19T02:23:15;3.45;;;1.95;;
49824;SDS011;35714;55.708;37.478;2023-05-19T02:25:40;4.30;;;2.03;;
49824;SDS011;35714;55.708;37.478;2023-05-19T02:28:07;2.92;;;1.67;;
49824;SDS011;35714;55.708;37.478;2023-05-19T02:30:32;3.53;;;2.00;;
49824;SDS011;35714;55.708;37.478;2023-05-19T02:33:00;3.58;;;1.67;;
49824;SDS011;35714;55.708;37.478;2023-05-19T02:35:26;4.68;;;1.98;;
49824;SDS011;35714;55.708;37.478;2023-05-19T02:37:52;4.22;;;1.83;;
49824;SDS011;35714;55.708;37.478;2023-05-19T02:40:18;5.32;;;1.70;;
49824;SDS011;35714;55.708;37.478;2023-05-19T02:42:46;3.60;;;2.00;;
49824;SDS011;35714;55.708;37.478;2023-05-19T02:45:12;4.88;;;1.77;;
49824;SDS011;35714;55.708;37.478;2023-05-19T02:47:40;4.60;;;1.63;;
49824;SDS011;35714;55.708;37.478;2023-05-19T02:50:06;3.47;;;1.75;;
49824;SDS011;35714;55.708;37.478;2023-05-19T02:52:32;4.88;;;1.92;;
49824;SDS011;35714;55.708;37.478;2023-05-19T02:54:58;3.63;;;1.55;;
49824;SDS011;35714;55.708;37.478;2023-05-19T02:57:24;3.35;;;1.52;;
49824;SDS011;35714;55.708;37.478;2023-05-19T02:59:51;2.85;;;1.60;;
49824;SDS011;35714;55.708;37.478;2023-05-19T03:02:17;3.20;;;1.50;;
49824;SDS011;35714;55.708;37.478;2023-05-19T03:04:42;4.78;;;1.90;;
49824;SDS011;35714;55.708;37.478;2023-05-19T03:07:08;6.10;;;2.00;;
49824;SDS011;35714;55.708;37.478;2023-05-19T03:09:37;3.42;;;1.70;;
49824;SDS011;35714;55.708;37.478;2023-05-19T03:12:03;4.78;;;1.50;;
49824;SDS011;35714;55.708;37.478;2023-05-19T03:14:32;3.67;;;1.77;;
49824;SDS011;35714;55.708;37.478;2023-05-19T03:16:59;6.70;;;1.80;;
49824;SDS011;35714;55.708;37.478;2023-05-19T03:19:25;4.10;;;1.30;;
49824;SDS011;35714;55.708;37.478;2023-05-19T03:21:51;3.20;;;1.45;;
49824;SDS011;35714;55.708;37.478;2023-05-19T03:24:17;3.20;;;1.50;;
49824;SDS011;35714;55.708;37.478;2023-05-19T03:26:43;4.75;;;1.52;;
49824;SDS011;35714;55.708;37.478;2023-05-19T03:29:08;3.97;;;1.77;;
49824;SDS011;35714;55.708;37.478;2023-05-19T03:31:35;4.53;;;1.80;;
49824;SDS011;35714;55.708;37.478;2023-05-19T03:34:02;4.30;;;1.95;;
49824;SDS011;35714;55.708;37.478;2023-05-19T03:36:28;4.18;;;1.63;;
49824;SDS011;35714;55.708;37.478;2023-05-19T03:38:59;3.10;;;1.50;;
49824;SDS011;35714;55.708;37.478;2023-05-19T03:41:25;4.13;;;1.80;;
49824;SDS011;35714;55.708;37.478;2023-05-19T03:43:50;4.70;;;1.50;;
49824;SDS011;35714;55.708;37.478;2023-05-19T03:46:16;4.18;;;1.73;;
49824;SDS011;35714;55.708;37.478;2023-05-19T03:49:00;5.93;;;2.25;;
49824;SDS011;35714;55.708;37.478;2023-05-19T03:51:44;5.53;;;2.10;;
49824;SDS011;35714;55.708;37.478;2023-05-19T03:54:30;3.40;;;1.60;;
49824;SDS011;35714;55.708;37.478;2023-05-19T03:56:56;4.93;;;1.90;;
49824;SDS011;35714;55.708;37.478;2023-05-19T03:59:22;3.67;;;1.90;;
49824;SDS011;35714;55.708;37.478;2023-05-19T04:01:49;4.40;;;1.83;;
49824;SDS011;35714;55.708;37.478;2023-05-19T04:04:16;4.60;;;1.92;;
49824;SDS011;35714;55.708;37.478;2023-05-19T04:06:44;5.53;;;2.13;;
49824;SDS011;35714;55.708;37.478;2023-05-19T04:09:10;4.63;;;2.08;;
49824;SDS011;35714;55.708;37.478;2023-05-19T04:11:38;4.15;;;2.00;;
49824;SDS011;35714;55.708;37.478;2023-05-19T04:14:05;3.97;;;2.10;;
49824;SDS011;35714;55.708;37.478;2023-05-19T04:16:31;5.15;;;2.22;;
49824;SDS011;35714;55.708;37.478;2023-05-19T04:18:57;5.38;;;2.55;;
49824;SDS011;35714;55.708;37.478;2023-05-19T04:21:23;4.25;;;2.05;;
49824;SDS011;35714;55.708;37.478;2023-05-19T04:23:49;4.32;;;2.08;;
49824;SDS011;35714;55.708;37.478;2023-05-19T04:26:15;6.20;;;2.00;;
49824;SDS011;35714;55.708;37.478;2023-05-19T04:28:42;3.88;;;1.90;;
49824;SDS011;35714;55.708;37.478;2023-05-19T04:31:09;4.55;;;2.50;;
49824;SDS011;35714;55.708;37.478;2023-05-19T04:33:37;6.03;;;2.65;;
49824;SDS011;35714;55.708;37.478;2023-05-19T04:36:07;5.65;;;2.45;;
49824;SDS011;35714;55.708;37.478;2023-05-19T04:38:36;5.47;;;2.63;;
49824;SDS011;35714;55.708;37.478;2023-05-19T04:41:05;4.95;;;2.25;;
49824;SDS011;35714;55.708;37.478;2023-05-19T04:43:35;4.68;;;2.20;;
49824;SDS011;35714;55.708;37.478;2023-05-19T04:46:02;5.10;;;2.25;;
49824;SDS011;35714;55.708;37.478;2023-05-19T04:48:30;4.38;;;2.35;;
49824;SDS011;35714;55.708;37.478;2023-05-19T04:50:57;5.32;;;2.60;;
49824;SDS011;35714;55.708;37.478;2023-05-19T04:53:26;5.20;;;2.75;;
49824;SDS011;35714;55.708;37.478;2023-05-19T04:55:54;5.50;;;2.67;;
49824;SDS011;35714;55.708;37.478;2023-05-19T04:58:21;4.35;;;2.28;;
49824;SDS011;35714;55.708;37.478;2023-05-19T05:00:50;4.72;;;2.33;;
49824;SDS011;35714;55.708;37.478;2023-05-19T05:03:17;7.05;;;2.90;;
49824;SDS011;35714;55.708;37.478;2023-05-19T05:05:43;5.40;;;2.72;;
49824;SDS011;35714;55.708;37.478;2023-05-19T05:08:09;4.90;;;2.78;;
49824;SDS011;35714;55.708;37.478;2023-05-19T05:10:39;5.55;;;3.00;;
49824;SDS011;35714;55.708;37.478;2023-05-19T05:13:05;5.32;;;2.78;;
49824;SDS011;35714;55.708;37.478;2023-05-19T05:15:31;5.65;;;2.85;;
49824;SDS011;35714;55.708;37.478;2023-05-19T05:18:00;4.65;;;2.67;;
49824;SDS011;35714;55.708;37.478;2023-05-19T05:20:26;4.72;;;2.90;;
49824;SDS011;35714;55.708;37.478;2023-05-19T05:22:52;4.28;;;2.72;;
49824;SDS011;35714;55.708;37.478;2023-05-19T05:25:19;4.22;;;2.60;;
49824;SDS011;35714;55.708;37.478;2023-05-19T05:27:45;4.90;;;2.63;;
49824;SDS011;35714;55.708;37.478;2023-05-19T05:30:12;4.47;;;2.75;;
49824;SDS011;35714;55.708;37.478;2023-05-19T05:32:38;5.07;;;2.88;;
49824;SDS011;35714;55.708;37.478;2023-05-19T05:35:13;6.60;;;2.75;;
49824;SDS011;35714;55.708;37.478;2023-05-19T05:37:39;6.75;;;3.15;;
49824;SDS011;35714;55.708;37.478;2023-05-19T05:40:05;7.00;;;3.30;;
49824;SDS011;35714;55.708;37.478;2023-05-19T05:42:32;4.93;;;3.00;;
49824;SDS011;35714;55.708;37.478;2023-05-19T05:44:58;5.45;;;2.90;;
49824;SDS011;35714;55.708;37.478;2023-05-19T05:47:25;7.07;;;3.08;;
49824;SDS011;35714;55.708;37.478;2023-05-19T05:49:51;6.05;;;3.28;;
49824;SDS011;35714;55.708;37.478;2023-05-19T05:52:17;7.55;;;4.22;;
49824;SDS011;35714;55.708;37.478;2023-05-19T05:54:46;5.68;;;3.28;;
49824;SDS011;35714;55.708;37.478;2023-05-19T05:57:14;7.13;;;4.25;;
49824;SDS011;35714;55.708;37.478;2023-05-19T05:59:41;6.30;;;4.20;;
49824;SDS011;35714;55.708;37.478;2023-05-19T06:02:10;5.75;;;3.72;;
49824;SDS011;35714;55.708;37.478;2023-05-19T06:04:37;6.78;;;4.18;;
49824;SDS011;35714;55.708;37.478;2023-05-19T06:07:05;9.00;;;4.88;;
49824;SDS011;35714;55.708;37.478;2023-05-19T06:09:34;13.50;;;9.48;;
49824;SDS011;35714;55.708;37.478;2023-05-19T06:12:01;19.25;;;12.60;;
49824;SDS011;35714;55.708;37.478;2023-05-19T06:14:32;12.57;;;8.07;;
49824;SDS011;35714;55.708;37.478;2023-05-19T06:17:09;14.43;;;6.25;;
49824;SDS011;35714;55.708;37.478;2023-05-19T06:19:35;9.23;;;5.50;;
49824;SDS011;35714;55.708;37.478;2023-05-19T06:22:01;8.85;;;4.70;;
49824;SDS011;35714;55.708;37.478;2023-05-19T06:24:28;8.35;;;5.00;;
49824;SDS011;35714;55.708;37.478;2023-05-19T06:26:54;7.65;;;5.05;;
49824;SDS011;35714;55.708;37.478;2023-05-19T06:29:20;8.65;;;5.13;;
49824;SDS011;35714;55.708;37.478;2023-05-19T06:31:46;9.18;;;5.70;;
49824;SDS011;35714;55.708;37.478;2023-05-19T06:34:15;9.43;;;5.93;;
49824;SDS011;35714;55.708;37.478;2023-05-19T06:36:42;9.07;;;5.95;;
49824;SDS011;35714;55.708;37.478;2023-05-19T06:39:09;9.30;;;4.60;;
49824;SDS011;35714;55.708;37.478;2023-05-19T06:41:35;8.82;;;4.82;;
49824;SDS011;35714;55.708;37.478;2023-05-19T06:44:02;7.43;;;4.78;;
49824;SDS011;35714;55.708;37.478;2023-05-19T06:46:31;9.02;;;5.47;;
49824;SDS011;35714;55.708;37.478;2023-05-19T06:48:57;8.60;;;5.55;;
49824;SDS011;35714;55.708;37.478;2023-05-19T06:51:25;8.95;;;5.18;;
49824;SDS011;35714;55.708;37.478;2023-05-19T06:53:54;9.20;;;5.18;;
49824;SDS011;35714;55.708;37.478;2023-05-19T06:56:21;9.35;;;5.50;;
49824;SDS011;35714;55.708;37.478;2023-05-19T06:58:47;8.40;;;5.35;;
49824;SDS011;35714;55.708;37.478;2023-05-19T07:01:13;9.50;;;5.47;;
49824;SDS011;35714;55.708;37.478;2023-05-19T07:03:45;7.05;;;4.55;;
49824;SDS011;35714;55.708;37.478;2023-05-19T07:06:12;9.38;;;4.70;;
49824;SDS011;35714;55.708;37.478;2023-05-19T07:08:38;13.90;;;5.38;;
49824;SDS011;35714;55.708;37.478;2023-05-19T07:11:05;10.02;;;5.10;;
49824;SDS011;35714;55.708;37.478;2023-05-19T07:13:31;9.15;;;6.38;;
49824;SDS011;35714;55.708;37.478;2023-05-19T07:15:58;8.45;;;4.85;;
49824;SDS011;35714;55.708;37.478;2023-05-19T07:18:26;7.22;;;4.70;;
49824;SDS011;35714;55.708;37.478;2023-05-19T07:20:56;10.00;;;5.20;;
49824;SDS011;35714;55.708;37.478;2023-05-19T07:23:22;8.65;;;5.60;;
49824;SDS011;35714;55.708;37.478;2023-05-19T07:25:48;9.75;;;5.68;;
49824;SDS011;35714;55.708;37.478;2023-05-19T07:28:14;10.52;;;5.40;;
49824;SDS011;35714;55.708;37.478;2023-05-19T07:30:39;8.52;;;4.95;;
49824;SDS011;35714;55.708;37.478;2023-05-19T07:33:05;10.98;;;5.15;;
49824;SDS011;35714;55.708;37.478;2023-05-19T07:35:31;8.82;;;5.40;;
49824;SDS011;35714;55.708;37.478;2023-05-19T07:37:57;9.60;;;5.55;;
49824;SDS011;35714;55.708;37.478;2023-05-19T07:40:22;9.52;;;5.30;;
49824;SDS011;35714;55.708;37.478;2023-05-19T07:42:48;10.65;;;5.55;;
49824;SDS011;35714;55.708;37.478;2023-05-19T07:45:14;7.55;;;4.60;;
49824;SDS011;35714;55.708;37.478;2023-05-19T07:47:41;10.18;;;5.50;;
49824;SDS011;35714;55.708;37.478;2023-05-19T07:50:07;7.90;;;4.85;;
49824;SDS011;35714;55.708;37.478;2023-05-19T07:52:33;9.35;;;5.15;;
49824;SDS011;35714;55.708;37.478;2023-05-19T07:54:59;12.60;;;5.60;;
49824;SDS011;35714;55.708;37.478;2023-05-19T07:57:24;8.10;;;5.57;;
49824;SDS011;35714;55.708;37.478;2023-05-19T07:59:50;12.02;;;5.13;;
49824;SDS011;35714;55.708;37.478;2023-05-19T08:02:16;10.25;;;4.70;;
49824;SDS011;35714;55.708;37.478;2023-05-19T08:04:41;9.15;;;5.10;;
49824;SDS011;35714;55.708;37.478;2023-05-19T08:07:07;9.63;;;4.80;;
49824;SDS011;35714;55.708;37.478;2023-05-19T08:09:33;9.05;;;4.63;;
49824;SDS011;35714;55.708;37.478;2023-05-19T08:11:58;8.20;;;4.78;;
49824;SDS011;35714;55.708;37.478;2023-05-19T08:14:25;7.40;;;3.90;;
49824;SDS011;35714;55.708;37.478;2023-05-19T08:16:51;9.40;;;4.28;;
49824;SDS011;35714;55.708;37.478;2023-05-19T08:19:17;6.88;;;4.30;;
49824;SDS011;35714;55.708;37.478;2023-05-19T08:21:43;10.45;;;6.07;;
49824;SDS011;35714;55.708;37.478;2023-05-19T08:24:08;10.75;;;6.85;;
49824;SDS011;35714;55.708;37.478;2023-05-19T08:26:34;10.27;;;4.72;;
49824;SDS011;35714;55.708;37.478;2023-05-19T08:29:00;8.18;;;4.03;;
49824;SDS011;35714;55.708;37.478;2023-05-19T08:31:25;7.88;;;2.95;;
49824;SDS011;35714;55.708;37.478;2023-05-19T08:33:51;9.55;;;3.50;;
49824;SDS011;35714;55.708;37.478;2023-05-19T08:36:17;9.40;;;3.00;;
49824;SDS011;35714;55.708;37.478;2023-05-19T08:38:43;7.30;;;2.90;;
49824;SDS011;35714;55.708;37.478;2023-05-19T08:41:09;5.38;;;2.60;;
49824;SDS011;35714;55.708;37.478;2023-05-19T08:43:35;6.40;;;3.03;;
49824;SDS011;35714;55.708;37.478;2023-05-19T08:46:01;5.20;;;2.35;;
49824;SDS011;35714;55.708;37.478;2023-05-19T08:48:28;6.25;;;2.72;;
49824;SDS011;35714;55.708;37.478;2023-05-19T08:53:36;5.53;;;2.58;;
49824;SDS011;35714;55.708;37.478;2023-05-19T08:56:07;8.65;;;2.35;;
49824;SDS011;35714;55.708;37.478;2023-05-19T08:58:37;8.43;;;2.70;;
49824;SDS011;35714;55.708;37.478;2023-05-19T09:01:06;4.68;;;2.25;;
49824;SDS011;35714;55.708;37.478;2023-05-19T09:03:32;6.38;;;2.08;;
49824;SDS011;35714;55.708;37.478;2023-05-19T09:06:04;4.93;;;1.80;;
49824;SDS011;35714;55.708;37.478;2023-05-19T09:08:31;3.10;;;1.40;;
49824;SDS011;35714;55.708;37.478;2023-05-19T09:10:57;8.05;;;1.92;;
49824;SDS011;35714;55.708;37.478;2023-05-19T09:13:23;5.00;;;1.90;;
49824;SDS011;35714;55.708;37.478;2023-05-19T09:15:49;4.25;;;1.92;;
49824;SDS011;35714;55.708;37.478;2023-05-19T09:18:16;4.28;;;1.80;;
49824;SDS011;35714;55.708;37.478;2023-05-19T09:20:42;4.53;;;2.30;;
49824;SDS011;35714;55.708;37.478;2023-05-19T09:23:12;6.53;;;1.90;;
49824;SDS011;35714;55.708;37.478;2023-05-19T09:25:49;6.60;;;2.22;;
49824;SDS011;35714;55.708;37.478;2023-05-19T09:28:25;4.22;;;1.52;;
49824;SDS011;35714;55.708;37.478;2023-05-19T09:31:03;6.80;;;1.83;;
49824;SDS011;35714;55.708;37.478;2023-05-19T09:33:31;5.65;;;1.70;;
49824;SDS011;35714;55.708;37.478;2023-05-19T09:35:58;5.45;;;1.90;;
49824;SDS011;35714;55.708;37.478;2023-05-19T09:38:25;5.57;;;1.98;;
49824;SDS011;35714;55.708;37.478;2023-05-19T09:40:52;2.90;;;1.40;;
49824;SDS011;35714;55.708;37.478;2023-05-19T09:43:20;6.03;;;1.80;;
49824;SDS011;35714;55.708;37.478;2023-05-19T09:45:46;4.35;;;1.70;;
49824;SDS011;35714;55.708;37.478;2023-05-19T09:48:13;3.28;;;1.60;;
49824;SDS011;35714;55.708;37.478;2023-05-19T09:50:41;3.70;;;1.80;;
49824;SDS011;35714;55.708;37.478;2023-05-19T09:53:11;5.47;;;1.80;;
49824;SDS011;35714;55.708;37.478;2023-05-19T09:55:38;4.53;;;1.55;;
49824;SDS011;35714;55.708;37.478;2023-05-19T09:58:05;5.20;;;1.65;;
49824;SDS011;35714;55.708;37.478;2023-05-19T10:00:31;4.25;;;1.58;;
49824;SDS011;35714;55.708;37.478;2023-05-19T10:02:58;5.00;;;1.75;;
49824;SDS011;35714;55.708;37.478;2023-05-19T10:05:25;3.05;;;1.50;;
49824;SDS011;35714;55.708;37.478;2023-05-19T10:07:52;3.97;;;1.20;;
49824;SDS011;35714;55.708;37.478;2023-05-19T10:10:19;6.05;;;1.40;;
49824;SDS011;35714;55.708;37.478;2023-05-19T10:12:46;3.28;;;1.08;;
49824;SDS011;35714;55.708;37.478;2023-05-19T10:15:16;3.28;;;1.20;;
49824;SDS011;35714;55.708;37.478;2023-05-19T10:17:44;2.83;;;1.20;;
49824;SDS011;35714;55.708;37.478;2023-05-19T10:20:11;4.35;;;1.15;;
49824;SDS011;35714;55.708;37.478;2023-05-19T10:22:39;2.42;;;1.00;;
49824;SDS011;35714;55.708;37.478;2023-05-19T10:25:06;4.28;;;1.10;;
49824;SDS011;35714;55.708;37.478;2023-05-19T10:27:34;2.78;;;1.23;;
49824;SDS011;35714;55.708;37.478;2023-05-19T10:30:06;5.53;;;2.58;;
49824;SDS011;35714;55.708;37.478;2023-05-19T10:32:45;2.92;;;1.27;;
49824;SDS011;35714;55.708;37.478;2023-05-19T10:46:33;5.82;;;0.88;;
49824;SDS011;35714;55.708;37.478;2023-05-19T10:48:59;3.78;;;1.25;;
49824;SDS011;35714;55.708;37.478;2023-05-19T10:51:31;3.05;;;1.10;;
49824;SDS011;35714;55.708;37.478;2023-05-19T10:54:00;3.25;;;0.80;;
49824;SDS011;35714;55.708;37.478;2023-05-19T10:56:31;3.45;;;1.30;;
49824;SDS011;35714;55.708;37.478;2023-05-19T10:58:59;4.95;;;1.30;;
49824;SDS011;35714;55.708;37.478;2023-05-19T11:01:29;2.42;;;0.88;;
49824;SDS011;35714;55.708;37.478;2023-05-19T11:03:56;4.40;;;0.95;;
49824;SDS011;35714;55.708;37.478;2023-05-19T11:06:31;3.42;;;1.05;;
49824;SDS011;35714;55.708;37.478;2023-05-19T11:09:01;4.30;;;1.65;;
49824;SDS011;35714;55.708;37.478;2023-05-19T11:11:49;4.85;;;1.50;;
49824;SDS011;35714;55.708;37.478;2023-05-19T11:14:25;2.88;;;1.20;;
49824;SDS011;35714;55.708;37.478;2023-05-19T11:16:52;5.25;;;1.35;;
49824;SDS011;35714;55.708;37.478;2023-05-19T11:19:33;5.80;;;1.00;;
49824;SDS011;35714;55.708;37.478;2023-05-19T11:22:09;4.80;;;1.70;;
49824;SDS011;35714;55.708;37.478;2023-05-19T11:24:44;3.90;;;1.23;;
49824;SDS011;35714;55.708;37.478;2023-05-19T11:32:33;3.63;;;1.48;;
49824;SDS011;35714;55.708;37.478;2023-05-19T11:35:03;3.85;;;1.17;;
49824;SDS011;35714;55.708;37.478;2023-05-19T11:37:32;3.80;;;1.35;;
49824;SDS011;35714;55.708;37.478;2023-05-19T11:40:05;4.20;;;1.30;;
49824;SDS011;35714;55.708;37.478;2023-05-19T11:42:32;3.03;;;1.10;;
49824;SDS011;35714;55.708;37.478;2023-05-19T11:45:02;3.10;;;1.10;;
49824;SDS011;35714;55.708;37.478;2023-05-19T11:47:33;4.65;;;1.70;;
49824;SDS011;35714;55.708;37.478;2023-05-19T11:50:00;6.10;;;1.02;;
49824;SDS011;35714;55.708;37.478;2023-05-19T11:52:26;4.28;;;1.05;;
49824;SDS011;35714;55.708;37.478;2023-05-19T11:54:52;2.40;;;0.90;;
49824;SDS011;35714;55.708;37.478;2023-05-19T11:57:19;7.82;;;1.13;;
49824;SDS011;35714;55.708;37.478;2023-05-19T11:59:45;3.22;;;1.35;;
49824;SDS011;35714;55.708;37.478;2023-05-19T12:02:15;4.47;;;1.20;;
49824;SDS011;35714;55.708;37.478;2023-05-19T12:04:41;3.63;;;0.85;;
49824;SDS011;35714;55.708;37.478;2023-05-19T12:07:07;6.85;;;0.90;;
49824;SDS011;35714;55.708;37.478;2023-05-19T12:09:33;6.78;;;1.40;;
49824;SDS011;35714;55.708;37.478;2023-05-19T12:11:59;2.47;;;0.95;;
49824;SDS011;35714;55.708;37.478;2023-05-19T12:14:25;2.80;;;1.00;;
49824;SDS011;35714;55.708;37.478;2023-05-19T12:16:53;1.85;;;0.68;;
49824;SDS011;35714;55.708;37.478;2023-05-19T12:19:21;3.50;;;0.68;;
49824;SDS011;35714;55.708;37.478;2023-05-19T12:21:48;2.75;;;0.80;;
49824;SDS011;35714;55.708;37.478;2023-05-19T12:24:15;4.60;;;0.98;;
49824;SDS011;35714;55.708;37.478;2023-05-19T12:26:40;3.80;;;1.33;;
49824;SDS011;35714;55.708;37.478;2023-05-19T12:29:06;3.03;;;0.90;;
49824;SDS011;35714;55.708;37.478;2023-05-19T12:31:33;2.65;;;0.80;;
49824;SDS011;35714;55.708;37.478;2023-05-19T12:33:59;2.80;;;0.80;;
49824;SDS011;35714;55.708;37.478;2023-05-19T12:36:26;2.50;;;0.75;;
49824;SDS011;35714;55.708;37.478;2023-05-19T12:38:53;3.92;;;0.90;;
49824;SDS011;35714;55.708;37.478;2023-05-19T12:41:19;5.05;;;2.88;;
49824;SDS011;35714;55.708;37.478;2023-05-19T12:43:45;5.28;;;1.08;;
49824;SDS011;35714;55.708;37.478;2023-05-19T12:46:11;6.28;;;1.00;;
49824;SDS011;35714;55.708;37.478;2023-05-19T12:48:44;2.78;;;0.75;;
49824;SDS011;35714;55.708;37.478;2023-05-19T12:51:16;8.98;;;1.92;;
49824;SDS011;35714;55.708;37.478;2023-05-19T12:53:43;6.47;;;1.30;;
49824;SDS011;35714;55.708;37.478;2023-05-19T12:56:12;6.05;;;0.80;;
49824;SDS011;35714;55.708;37.478;2023-05-19T12:58:42;3.50;;;0.70;;
49824;SDS011;35714;55.708;37.478;2023-05-19T13:01:17;3.00;;;0.90;;
49824;SDS011;35714;55.708;37.478;2023-05-19T13:03:42;3.28;;;0.88;;
49824;SDS011;35714;55.708;37.478;2023-05-19T13:06:09;4.28;;;0.70;;
49824;SDS011;35714;55.708;37.478;2023-05-19T13:08:35;2.80;;;0.80;;
49824;SDS011;35714;55.708;37.478;2023-05-19T13:11:03;4.22;;;1.05;;
49824;SDS011;35714;55.708;37.478;2023-05-19T13:13:29;2.38;;;0.80;;
49824;SDS011;35714;55.708;37.478;2023-05-19T13:15:55;4.45;;;0.80;;
49824;SDS011;35714;55.708;37.478;2023-05-19T13:18:21;2.45;;;0.80;;
49824;SDS011;35714;55.708;37.478;2023-05-19T13:20:47;9.20;;;2.03;;
49824;SDS011;35714;55.708;37.478;2023-05-19T13:23:14;4.25;;;1.27;;
49824;SDS011;35714;55.708;37.478;2023-05-19T13:25:41;3.13;;;0.80;;
49824;SDS011;35714;55.708;37.478;2023-05-19T13:28:08;5.72;;;0.77;;
49824;SDS011;35714;55.708;37.478;2023-05-19T13:30:35;3.88;;;1.30;;
49824;SDS011;35714;55.708;37.478;2023-05-19T13:33:03;3.67;;;0.82;;
49824;SDS011;35714;55.708;37.478;2023-05-19T13:35:29;2.97;;;0.68;;
49824;SDS011;35714;55.708;37.478;2023-05-19T13:38:05;4.90;;;1.20;;
49824;SDS011;35714;55.708;37.478;2023-05-19T13:40:33;1.65;;;0.70;;
49824;SDS011;35714;55.708;37.478;2023-05-19T13:42:59;4.50;;;1.70;;
49824;SDS011;35714;55.708;37.478;2023-05-19T13:45:26;5.47;;;1.23;;
49824;SDS011;35714;55.708;37.478;2023-05-19T13:47:53;9.05;;;4.00;;
49824;SDS011;35714;55.708;37.478;2023-05-19T13:50:19;3.70;;;1.33;;
49824;SDS011;35714;55.708;37.478;2023-05-19T13:52:45;6.15;;;1.85;;
49824;SDS011;35714;55.708;37.478;2023-05-19T13:55:10;2.42;;;0.93;;
49824;SDS011;35714;55.708;37.478;2023-05-19T13:57:36;7.95;;;0.98;;
49824;SDS011;35714;55.708;37.478;2023-05-19T14:00:02;4.20;;;0.98;;
49824;SDS011;35714;55.708;37.478;2023-05-19T14:02:39;3.47;;;0.90;;
49824;SDS011;35714;55.708;37.478;2023-05-19T14:05:05;2.85;;;0.98;;
49824;SDS011;35714;55.708;37.478;2023-05-19T14:07:31;2.55;;;1.05;;
49824;SDS011;35714;55.708;37.478;2023-05-19T14:09:59;2.85;;;1.20;;
49824;SDS011;35714;55.708;37.478;2023-05-19T14:12:25;6.10;;;1.08;;
49824;SDS011;35714;55.708;37.478;2023-05-19T14:14:51;2.45;;;0.82;;
49824;SDS011;35714;55.708;37.478;2023-05-19T14:17:17;4.03;;;1.58;;
49824;SDS011;35714;55.708;37.478;2023-05-19T14:19:42;4.43;;;1.48;;
49824;SDS011;35714;55.708;37.478;2023-05-19T14:22:08;5.50;;;1.63;;
49824;SDS011;35714;55.708;37.478;2023-05-19T14:24:34;3.45;;;1.20;;
49824;SDS011;35714;55.708;37.478;2023-05-19T14:27:00;2.33;;;0.77;;
49824;SDS011;35714;55.708;37.478;2023-05-19T14:29:26;3.53;;;0.80;;
49824;SDS011;35714;55.708;37.478;2023-05-19T14:31:52;3.88;;;0.93;;
49824;SDS011;35714;55.708;37.478;2023-05-19T14:34:18;2.97;;;0.70;;
49824;SDS011;35714;55.708;37.478;2023-05-19T14:36:45;2.75;;;0.80;;
49824;SDS011;35714;55.708;37.478;2023-05-19T14:39:12;2.83;;;0.88;;
49824;SDS011;35714;55.708;37.478;2023-05-19T14:41:37;4.10;;;1.42;;
49824;SDS011;35714;55.708;37.478;2023-05-19T14:44:03;4.80;;;1.55;;
49824;SDS011;35714;55.708;37.478;2023-05-19T14:46:29;3.35;;;1.02;;
49824;SDS011;35714;55.708;37.478;2023-05-19T14:48:55;3.92;;;1.98;;
49824;SDS011;35714;55.708;37.478;2023-05-19T14:51:21;4.55;;;2.47;;
49824;SDS011;35714;55.708;37.478;2023-05-19T14:53:47;4.47;;;1.38;;
49824;SDS011;35714;55.708;37.478;2023-05-19T14:56:14;4.72;;;1.20;;
49824;SDS011;35714;55.708;37.478;2023-05-19T14:58:40;2.70;;;1.05;;
49824;SDS011;35714;55.708;37.478;2023-05-19T15:01:06;4.03;;;1.00;;
49824;SDS011;35714;55.708;37.478;2023-05-19T15:03:32;3.85;;;0.82;;
49824;SDS011;35714;55.708;37.478;2023-05-19T15:05:57;3.80;;;0.85;;
49824;SDS011;35714;55.708;37.478;2023-05-19T15:08:24;4.78;;;0.70;;
49824;SDS011;35714;55.708;37.478;2023-05-19T15:10:49;4.32;;;0.60;;
49824;SDS011;35714;55.708;37.478;2023-05-19T15:13:15;7.70;;;0.90;;
49824;SDS011;35714;55.708;37.478;2023-05-19T15:15:43;2.47;;;0.93;;
49824;SDS011;35714;55.708;37.478;2023-05-19T15:18:10;2.88;;;0.82;;